sensor_id;sensor_type;location;lat;lon;timestamp;temperature;humidity
26408;DHT22;14583;43.604;1.364;2024-01-16T00:01:44;11.80;99.90
26408;DHT22;14583;43.604;1.364;2024-01-16T00:04:10;11.80;99.90
26408;DHT22;14583;43.604;1.364;2024-01-16T00:06:40;11.80;99.90
26408;DHT22;14583;43.604;1.364;2024-01-16T00:09:06;11.90;99.90
26408;DHT22;14583;43.604;1.364;2024-01-16T00:11:32;11.90;99.90
26408;DHT22;14583;43.604;1.364;2024-01-16T00:13:58;11.90;99.90
26408;DHT22;14583;43.604;1.364;2024-01-16T00:16:23;11.90;99.90
26408;DHT22;14583;43.604;1.364;2024-01-16T00:18:49;11.90;99.90
26408;DHT22;14583;43.604;1.364;2024-01-16T00:21:14;11.90;99.90
26408;DHT22;14583;43.604;1.364;2024-01-16T00:23:40;11.90;99.90
26408;DHT22;14583;43.604;1.364;2024-01-16T00:26:06;12.00;99.90
26408;DHT22;14583;43.604;1.364;2024-01-16T00:28:32;12.00;99.90
26408;DHT22;14583;43.604;1.364;2024-01-16T00:30:58;12.00;99.90
26408;DHT22;14583;43.604;1.364;2024-01-16T00:33:23;12.00;99.90
26408;DHT22;14583;43.604;1.364;2024-01-16T00:35:49;12.00;99.90
26408;DHT22;14583;43.604;1.364;2024-01-16T00:38:15;12.10;99.90
26408;DHT22;14583;43.604;1.364;2024-01-16T00:40:41;12.10;99.90
26408;DHT22;14583;43.604;1.364;2024-01-16T00:43:06;12.10;99.90
26408;DHT22;14583;43.604;1.364;2024-01-16T00:45:32;12.10;99.90
26408;DHT22;14583;43.604;1.364;2024-01-16T00:47:58;12.10;99.90
26408;DHT22;14583;43.604;1.364;2024-01-16T00:50:24;12.10;99.90
26408;DHT22;14583;43.604;1.364;2024-01-16T00:52:50;12.10;99.90
26408;DHT22;14583;43.604;1.364;2024-01-16T00:55:15;12.10;99.90
26408;DHT22;14583;43.604;1.364;2024-01-16T00:57:41;12.20;99.90
26408;DHT22;14583;43.604;1.364;2024-01-16T01:00:07;12.20;99.90
26408;DHT22;14583;43.604;1.364;2024-01-16T01:02:35;12.20;99.90
26408;DHT22;14583;43.604;1.364;2024-01-16T01:05:01;12.20;99.90
26408;DHT22;14583;43.604;1.364;2024-01-16T01:07:27;12.20;99.90
26408;DHT22;14583;43.604;1.364;2024-01-16T01:09:52;12.20;99.90
26408;DHT22;14583;43.604;1.364;2024-01-16T01:12:18;12.20;99.90
26408;DHT22;14583;43.604;1.364;2024-01-16T01:14:44;12.30;99.90
26408;DHT22;14583;43.604;1.364;2024-01-16T01:17:09;12.20;99.90
26408;DHT22;14583;43.604;1.364;2024-01-16T01:19:35;12.20;99.90
26408;DHT22;14583;43.604;1.364;2024-01-16T01:22:01;12.20;99.90
26408;DHT22;14583;43.604;1.364;2024-01-16T01:24:26;12.30;99.90
26408;DHT22;14583;43.604;1.364;2024-01-16T01:26:52;12.30;99.90
26408;DHT22;14583;43.604;1.364;2024-01-16T01:29:18;12.30;99.90
26408;DHT22;14583;43.604;1.364;2024-01-16T01:31:47;12.30;99.90
26408;DHT22;14583;43.604;1.364;2024-01-16T01:34:15;12.30;99.90
26408;DHT22;14583;43.604;1.364;2024-01-16T01:36:41;12.30;99.90
26408;DHT22;14583;43.604;1.364;2024-01-16T01:39:08;12.30;99.90
26408;DHT22;14583;43.604;1.364;2024-01-16T01:41:34;12.20;99.90
26408;DHT22;14583;43.604;1.364;2024-01-16T01:44:00;12.30;99.90
26408;DHT22;14583;43.604;1.364;2024-01-16T01:46:25;12.30;99.90
26408;DHT22;14583;43.604;1.364;2024-01-16T01:48:51;12.30;99.90
26408;DHT22;14583;43.604;1.364;2024-01-16T01:51:18;12.20;99.90
26408;DHT22;14583;43.604;1.364;2024-01-16T01:53:45;12.30;99.90
26408;DHT22;14583;43.604;1.364;2024-01-16T01:56:14;12.30;99.90
26408;DHT22;14583;43.604;1.364;2024-01-16T01:58:43;12.30;99.90
26408;DHT22;14583;43.604;1.364;2024-01-16T02:01:10;12.30;99.90
26408;DHT22;14583;43.604;1.364;2024-01-16T02:03:42;12.30;99.90
26408;DHT22;14583;43.604;1.364;2024-01-16T02:06:09;12.30;99.90
26408;DHT22;14583;43.604;1.364;2024-01-16T02:08:35;12.30;99.90
26408;DHT22;14583;43.604;1.364;2024-01-16T02:11:01;12.30;99.90
26408;DHT22;14583;43.604;1.364;2024-01-16T02:13:28;12.30;99.90
26408;DHT22;14583;43.604;1.364;2024-01-16T02:15:53;12.30;99.90
26408;DHT22;14583;43.604;1.364;2024-01-16T02:18:22;12.40;99.90
26408;DHT22;14583;43.604;1.364;2024-01-16T02:20:48;12.40;99.90
26408;DHT22;14583;43.604;1.364;2024-01-16T02:23:30;12.40;99.90
26408;DHT22;14583;43.604;1.364;2024-01-16T02:25:56;12.40;99.90
26408;DHT22;14583;43.604;1.364;2024-01-16T02:28:26;12.30;99.90
26408;DHT22;14583;43.604;1.364;2024-01-16T02:30:51;12.30;99.90
26408;DHT22;14583;43.604;1.364;2024-01-16T02:33:17;12.40;99.90
26408;DHT22;14583;43.604;1.364;2024-01-16T02:35:43;12.30;99.90
26408;DHT22;14583;43.604;1.364;2024-01-16T02:38:09;12.40;99.90
26408;DHT22;14583;43.604;1.364;2024-01-16T02:40:34;12.40;99.90
26408;DHT22;14583;43.604;1.364;2024-01-16T02:43:00;12.40;99.90
26408;DHT22;14583;43.604;1.364;2024-01-16T02:45:26;12.40;99.90
26408;DHT22;14583;43.604;1.364;2024-01-16T02:47:52;12.40;99.90
26408;DHT22;14583;43.604;1.364;2024-01-16T02:50:18;12.40;99.90
26408;DHT22;14583;43.604;1.364;2024-01-16T02:52:45;12.30;99.90
26408;DHT22;14583;43.604;1.364;2024-01-16T02:55:11;12.30;99.90
26408;DHT22;14583;43.604;1.364;2024-01-16T02:57:37;12.30;99.90
26408;DHT22;14583;43.604;1.364;2024-01-16T03:00:03;12.30;99.90
26408;DHT22;14583;43.604;1.364;2024-01-16T03:02:28;12.30;99.90
26408;DHT22;14583;43.604;1.364;2024-01-16T03:04:55;12.40;99.90
26408;DHT22;14583;43.604;1.364;2024-01-16T03:07:21;12.40;99.90
26408;DHT22;14583;43.604;1.364;2024-01-16T03:09:46;12.30;99.90
26408;DHT22;14583;43.604;1.364;2024-01-16T03:12:12;12.30;99.90
26408;DHT22;14583;43.604;1.364;2024-01-16T03:14:38;12.30;99.90
26408;DHT22;14583;43.604;1.364;2024-01-16T03:17:04;12.40;99.90
26408;DHT22;14583;43.604;1.364;2024-01-16T03:19:31;12.30;99.90
26408;DHT22;14583;43.604;1.364;2024-01-16T03:21:57;12.30;99.90
26408;DHT22;14583;43.604;1.364;2024-01-16T03:24:22;12.30;99.90
26408;DHT22;14583;43.604;1.364;2024-01-16T03:26:48;12.30;99.90
26408;DHT22;14583;43.604;1.364;2024-01-16T03:29:14;12.40;99.90
26408;DHT22;14583;43.604;1.364;2024-01-16T03:31:40;12.40;99.90
26408;DHT22;14583;43.604;1.364;2024-01-16T03:34:05;12.40;99.90
26408;DHT22;14583;43.604;1.364;2024-01-16T03:36:34;12.40;99.90
26408;DHT22;14583;43.604;1.364;2024-01-16T03:38:59;12.40;99.90
26408;DHT22;14583;43.604;1.364;2024-01-16T03:41:25;12.40;99.90
26408;DHT22;14583;43.604;1.364;2024-01-16T03:43:51;12.40;99.90
26408;DHT22;14583;43.604;1.364;2024-01-16T03:46:16;12.40;99.90
26408;DHT22;14583;43.604;1.364;2024-01-16T03:48:42;12.40;99.90
26408;DHT22;14583;43.604;1.364;2024-01-16T03:51:09;12.40;99.90
26408;DHT22;14583;43.604;1.364;2024-01-16T03:53:34;12.40;99.90
26408;DHT22;14583;43.604;1.364;2024-01-16T03:56:00;12.30;99.90
26408;DHT22;14583;43.604;1.364;2024-01-16T03:58:26;12.30;99.90
26408;DHT22;14583;43.604;1.364;2024-01-16T04:00:51;12.30;99.90
26408;DHT22;14583;43.604;1.364;2024-01-16T04:03:19;12.30;99.90
26408;DHT22;14583;43.604;1.364;2024-01-16T04:05:44;12.30;99.90
26408;DHT22;14583;43.604;1.364;2024-01-16T04:08:10;12.30;99.90
26408;DHT22;14583;43.604;1.364;2024-01-16T04:10:37;12.30;99.90
26408;DHT22;14583;43.604;1.364;2024-01-16T04:13:03;12.30;99.90
26408;DHT22;14583;43.604;1.364;2024-01-16T04:15:29;12.30;99.90
26408;DHT22;14583;43.604;1.364;2024-01-16T04:17:55;12.30;99.90
26408;DHT22;14583;43.604;1.364;2024-01-16T04:20:21;12.30;99.90
26408;DHT22;14583;43.604;1.364;2024-01-16T04:22:46;12.30;99.90
26408;DHT22;14583;43.604;1.364;2024-01-16T04:25:12;12.30;99.90
26408;DHT22;14583;43.604;1.364;2024-01-16T04:27:38;12.30;99.90
26408;DHT22;14583;43.604;1.364;2024-01-16T04:30:04;12.30;99.90
26408;DHT22;14583;43.604;1.364;2024-01-16T04:32:30;12.30;99.90
26408;DHT22;14583;43.604;1.364;2024-01-16T04:34:56;12.30;99.90
26408;DHT22;14583;43.604;1.364;2024-01-16T04:37:21;12.30;99.90
26408;DHT22;14583;43.604;1.364;2024-01-16T04:39:47;12.30;99.90
26408;DHT22;14583;43.604;1.364;2024-01-16T04:42:13;12.20;99.90
26408;DHT22;14583;43.604;1.364;2024-01-16T04:44:39;12.30;99.90
26408;DHT22;14583;43.604;1.364;2024-01-16T04:47:04;12.20;99.90
26408;DHT22;14583;43.604;1.364;2024-01-16T04:49:30;12.30;99.90
26408;DHT22;14583;43.604;1.364;2024-01-16T04:51:56;12.30;99.90
26408;DHT22;14583;43.604;1.364;2024-01-16T04:54:22;12.30;99.90
26408;DHT22;14583;43.604;1.364;2024-01-16T04:56:47;12.20;99.90
26408;DHT22;14583;43.604;1.364;2024-01-16T04:59:13;12.20;99.90
26408;DHT22;14583;43.604;1.364;2024-01-16T05:01:38;12.20;99.90
26408;DHT22;14583;43.604;1.364;2024-01-16T05:04:04;12.20;99.90
26408;DHT22;14583;43.604;1.364;2024-01-16T05:06:30;12.20;99.90
26408;DHT22;14583;43.604;1.364;2024-01-16T05:08:56;12.20;99.90
26408;DHT22;14583;43.604;1.364;2024-01-16T05:11:22;12.20;99.90
26408;DHT22;14583;43.604;1.364;2024-01-16T05:13:47;12.20;99.90
26408;DHT22;14583;43.604;1.364;2024-01-16T05:16:13;12.20;99.90
26408;DHT22;14583;43.604;1.364;2024-01-16T05:18:41;12.20;99.90
26408;DHT22;14583;43.604;1.364;2024-01-16T05:21:08;12.20;99.90
26408;DHT22;14583;43.604;1.364;2024-01-16T05:23:34;12.20;99.90
26408;DHT22;14583;43.604;1.364;2024-01-16T05:25:59;12.20;99.90
26408;DHT22;14583;43.604;1.364;2024-01-16T05:28:25;12.20;99.90
26408;DHT22;14583;43.604;1.364;2024-01-16T05:30:51;12.10;99.90
26408;DHT22;14583;43.604;1.364;2024-01-16T05:33:16;12.10;99.90
26408;DHT22;14583;43.604;1.364;2024-01-16T05:35:42;12.10;99.90
26408;DHT22;14583;43.604;1.364;2024-01-16T05:38:08;12.10;99.90
26408;DHT22;14583;43.604;1.364;2024-01-16T05:40:34;12.10;99.90
26408;DHT22;14583;43.604;1.364;2024-01-16T05:42:59;12.10;99.90
26408;DHT22;14583;43.604;1.364;2024-01-16T05:45:25;12.10;99.90
26408;DHT22;14583;43.604;1.364;2024-01-16T05:47:51;12.00;99.90
26408;DHT22;14583;43.604;1.364;2024-01-16T05:50:16;12.00;99.90
26408;DHT22;14583;43.604;1.364;2024-01-16T05:52:43;12.00;99.90
26408;DHT22;14583;43.604;1.364;2024-01-16T05:55:09;12.00;99.90
26408;DHT22;14583;43.604;1.364;2024-01-16T05:57:36;12.00;99.90
26408;DHT22;14583;43.604;1.364;2024-01-16T06:00:03;12.00;99.90
26408;DHT22;14583;43.604;1.364;2024-01-16T06:02:29;11.90;99.90
26408;DHT22;14583;43.604;1.364;2024-01-16T06:04:55;11.90;99.90
26408;DHT22;14583;43.604;1.364;2024-01-16T06:07:21;11.90;99.90
26408;DHT22;14583;43.604;1.364;2024-01-16T06:09:46;11.90;99.90
26408;DHT22;14583;43.604;1.364;2024-01-16T06:12:12;11.90;99.90
26408;DHT22;14583;43.604;1.364;2024-01-16T06:14:38;11.90;99.90
26408;DHT22;14583;43.604;1.364;2024-01-16T06:17:04;11.90;99.90
26408;DHT22;14583;43.604;1.364;2024-01-16T06:19:31;11.80;99.90
26408;DHT22;14583;43.604;1.364;2024-01-16T06:21:58;11.80;99.90
26408;DHT22;14583;43.604;1.364;2024-01-16T06:24:25;11.80;99.90
26408;DHT22;14583;43.604;1.364;2024-01-16T06:26:50;11.80;99.90
26408;DHT22;14583;43.604;1.364;2024-01-16T06:29:16;11.80;99.90
26408;DHT22;14583;43.604;1.364;2024-01-16T06:31:42;11.80;99.90
26408;DHT22;14583;43.604;1.364;2024-01-16T06:34:07;11.80;99.90
26408;DHT22;14583;43.604;1.364;2024-01-16T06:36:34;11.80;99.90
26408;DHT22;14583;43.604;1.364;2024-01-16T06:39:00;11.70;99.90
26408;DHT22;14583;43.604;1.364;2024-01-16T06:41:25;11.70;99.90
26408;DHT22;14583;43.604;1.364;2024-01-16T06:43:51;11.70;99.90
26408;DHT22;14583;43.604;1.364;2024-01-16T06:46:17;11.70;99.90
26408;DHT22;14583;43.604;1.364;2024-01-16T06:48:42;11.70;99.90
26408;DHT22;14583;43.604;1.364;2024-01-16T06:51:08;11.70;99.90
26408;DHT22;14583;43.604;1.364;2024-01-16T06:53:36;11.70;99.90
26408;DHT22;14583;43.604;1.364;2024-01-16T06:56:01;11.70;99.90
26408;DHT22;14583;43.604;1.364;2024-01-16T06:58:28;11.70;99.90
26408;DHT22;14583;43.604;1.364;2024-01-16T07:00:54;11.70;99.90
26408;DHT22;14583;43.604;1.364;2024-01-16T07:03:20;11.70;99.90
26408;DHT22;14583;43.604;1.364;2024-01-16T07:05:46;11.60;99.90
26408;DHT22;14583;43.604;1.364;2024-01-16T07:08:12;11.60;99.90
26408;DHT22;14583;43.604;1.364;2024-01-16T07:10:37;11.60;99.90
26408;DHT22;14583;43.604;1.364;2024-01-16T07:13:03;11.60;99.90
26408;DHT22;14583;43.604;1.364;2024-01-16T07:15:29;11.50;99.90
26408;DHT22;14583;43.604;1.364;2024-01-16T07:17:55;11.50;99.90
26408;DHT22;14583;43.604;1.364;2024-01-16T07:20:20;11.50;99.90
26408;DHT22;14583;43.604;1.364;2024-01-16T07:22:46;11.50;99.90
26408;DHT22;14583;43.604;1.364;2024-01-16T07:25:15;11.50;99.90
26408;DHT22;14583;43.604;1.364;2024-01-16T07:27:41;11.40;99.90
26408;DHT22;14583;43.604;1.364;2024-01-16T07:30:08;11.40;99.90
26408;DHT22;14583;43.604;1.364;2024-01-16T07:32:34;11.40;99.90
26408;DHT22;14583;43.604;1.364;2024-01-16T07:34:59;11.40;99.90
26408;DHT22;14583;43.604;1.364;2024-01-16T07:37:25;11.30;99.90
26408;DHT22;14583;43.604;1.364;2024-01-16T07:39:51;11.30;99.90
26408;DHT22;14583;43.604;1.364;2024-01-16T07:42:16;11.40;99.90
26408;DHT22;14583;43.604;1.364;2024-01-16T07:44:42;11.30;99.90
26408;DHT22;14583;43.604;1.364;2024-01-16T07:47:08;11.30;99.90
26408;DHT22;14583;43.604;1.364;2024-01-16T07:49:34;11.30;99.90
26408;DHT22;14583;43.604;1.364;2024-01-16T07:52:00;11.40;99.90
26408;DHT22;14583;43.604;1.364;2024-01-16T07:54:26;11.40;99.90
26408;DHT22;14583;43.604;1.364;2024-01-16T07:56:52;11.40;99.90
26408;DHT22;14583;43.604;1.364;2024-01-16T07:59:18;11.40;99.90
26408;DHT22;14583;43.604;1.364;2024-01-16T08:01:44;11.40;99.90
26408;DHT22;14583;43.604;1.364;2024-01-16T08:04:09;11.50;99.90
26408;DHT22;14583;43.604;1.364;2024-01-16T08:06:35;11.50;99.90
26408;DHT22;14583;43.604;1.364;2024-01-16T08:09:02;11.60;99.90
26408;DHT22;14583;43.604;1.364;2024-01-16T08:11:27;11.60;99.90
26408;DHT22;14583;43.604;1.364;2024-01-16T08:13:53;11.60;99.90
26408;DHT22;14583;43.604;1.364;2024-01-16T08:16:19;11.70;99.90
26408;DHT22;14583;43.604;1.364;2024-01-16T08:18:44;11.70;99.90
26408;DHT22;14583;43.604;1.364;2024-01-16T08:21:10;11.80;99.90
26408;DHT22;14583;43.604;1.364;2024-01-16T08:23:36;11.80;99.90
26408;DHT22;14583;43.604;1.364;2024-01-16T08:26:02;11.90;99.90
26408;DHT22;14583;43.604;1.364;2024-01-16T08:28:28;11.90;99.90
26408;DHT22;14583;43.604;1.364;2024-01-16T08:30:53;12.00;99.90
26408;DHT22;14583;43.604;1.364;2024-01-16T08:33:19;12.00;99.90
26408;DHT22;14583;43.604;1.364;2024-01-16T08:35:45;12.00;99.90
26408;DHT22;14583;43.604;1.364;2024-01-16T08:38:10;12.00;99.90
26408;DHT22;14583;43.604;1.364;2024-01-16T08:40:36;12.10;99.90
26408;DHT22;14583;43.604;1.364;2024-01-16T08:43:02;12.10;99.90
26408;DHT22;14583;43.604;1.364;2024-01-16T08:45:29;12.20;99.90
26408;DHT22;14583;43.604;1.364;2024-01-16T08:47:55;12.20;99.90
26408;DHT22;14583;43.604;1.364;2024-01-16T08:50:20;12.30;99.90
26408;DHT22;14583;43.604;1.364;2024-01-16T08:52:46;12.30;99.90
26408;DHT22;14583;43.604;1.364;2024-01-16T08:55:12;12.30;99.90
26408;DHT22;14583;43.604;1.364;2024-01-16T08:57:38;12.30;99.90
26408;DHT22;14583;43.604;1.364;2024-01-16T09:00:05;12.40;99.90
26408;DHT22;14583;43.604;1.364;2024-01-16T09:02:31;12.40;99.90
26408;DHT22;14583;43.604;1.364;2024-01-16T09:04:57;12.40;99.90
26408;DHT22;14583;43.604;1.364;2024-01-16T09:07:24;12.40;99.90
26408;DHT22;14583;43.604;1.364;2024-01-16T09:09:50;12.40;99.90
26408;DHT22;14583;43.604;1.364;2024-01-16T09:12:16;12.50;99.90
26408;DHT22;14583;43.604;1.364;2024-01-16T09:14:42;12.50;99.90
26408;DHT22;14583;43.604;1.364;2024-01-16T09:17:08;12.50;99.90
26408;DHT22;14583;43.604;1.364;2024-01-16T09:19:33;12.50;99.90
26408;DHT22;14583;43.604;1.364;2024-01-16T09:22:10;12.50;99.90
26408;DHT22;14583;43.604;1.364;2024-01-16T09:24:36;12.60;99.90
26408;DHT22;14583;43.604;1.364;2024-01-16T09:27:02;12.60;99.90
26408;DHT22;14583;43.604;1.364;2024-01-16T09:29:32;12.70;99.90
26408;DHT22;14583;43.604;1.364;2024-01-16T09:31:57;12.70;99.90
26408;DHT22;14583;43.604;1.364;2024-01-16T09:34:23;12.70;99.90
26408;DHT22;14583;43.604;1.364;2024-01-16T09:36:49;12.70;99.90
26408;DHT22;14583;43.604;1.364;2024-01-16T09:39:14;12.70;99.90
26408;DHT22;14583;43.604;1.364;2024-01-16T09:41:41;12.80;99.90
26408;DHT22;14583;43.604;1.364;2024-01-16T09:44:08;12.80;99.90
26408;DHT22;14583;43.604;1.364;2024-01-16T09:46:35;12.80;99.90
26408;DHT22;14583;43.604;1.364;2024-01-16T09:49:02;12.80;99.90
26408;DHT22;14583;43.604;1.364;2024-01-16T09:51:29;12.80;99.90
26408;DHT22;14583;43.604;1.364;2024-01-16T09:53:57;12.90;99.90
26408;DHT22;14583;43.604;1.364;2024-01-16T09:56:24;12.90;99.90
26408;DHT22;14583;43.604;1.364;2024-01-16T09:58:55;12.90;99.90
26408;DHT22;14583;43.604;1.364;2024-01-16T10:01:23;12.90;99.90
26408;DHT22;14583;43.604;1.364;2024-01-16T10:03:51;13.00;99.90
26408;DHT22;14583;43.604;1.364;2024-01-16T10:06:17;13.10;99.90
26408;DHT22;14583;43.604;1.364;2024-01-16T10:08:45;13.10;99.90
26408;DHT22;14583;43.604;1.364;2024-01-16T10:11:11;13.10;99.90
26408;DHT22;14583;43.604;1.364;2024-01-16T10:13:37;13.10;99.90
26408;DHT22;14583;43.604;1.364;2024-01-16T10:16:03;13.20;99.90
26408;DHT22;14583;43.604;1.364;2024-01-16T10:18:29;13.20;99.90
26408;DHT22;14583;43.604;1.364;2024-01-16T10:20:56;13.10;99.90
26408;DHT22;14583;43.604;1.364;2024-01-16T10:23:28;13.20;99.90
26408;DHT22;14583;43.604;1.364;2024-01-16T10:26:07;13.20;99.90
26408;DHT22;14583;43.604;1.364;2024-01-16T10:28:34;13.30;99.90
26408;DHT22;14583;43.604;1.364;2024-01-16T10:31:07;13.30;99.90
26408;DHT22;14583;43.604;1.364;2024-01-16T10:33:33;13.40;99.90
26408;DHT22;14583;43.604;1.364;2024-01-16T10:36:17;13.40;99.90
26408;DHT22;14583;43.604;1.364;2024-01-16T10:38:46;13.40;99.90
26408;DHT22;14583;43.604;1.364;2024-01-16T10:41:13;13.40;99.90
26408;DHT22;14583;43.604;1.364;2024-01-16T10:43:39;13.50;99.90
26408;DHT22;14583;43.604;1.364;2024-01-16T10:46:17;13.40;99.90
26408;DHT22;14583;43.604;1.364;2024-01-16T10:48:45;13.40;99.90
26408;DHT22;14583;43.604;1.364;2024-01-16T10:51:14;13.40;99.90
26408;DHT22;14583;43.604;1.364;2024-01-16T10:53:43;13.40;99.90
26408;DHT22;14583;43.604;1.364;2024-01-16T10:56:13;13.40;99.90
26408;DHT22;14583;43.604;1.364;2024-01-16T10:58:41;13.50;99.90
26408;DHT22;14583;43.604;1.364;2024-01-16T11:01:11;13.60;99.90
26408;DHT22;14583;43.604;1.364;2024-01-16T11:03:48;13.70;99.90
26408;DHT22;14583;43.604;1.364;2024-01-16T11:06:18;13.70;99.90
26408;DHT22;14583;43.604;1.364;2024-01-16T11:08:48;13.60;99.90
26408;DHT22;14583;43.604;1.364;2024-01-16T11:11:14;13.60;99.90
26408;DHT22;14583;43.604;1.364;2024-01-16T11:13:41;13.60;99.90
26408;DHT22;14583;43.604;1.364;2024-01-16T11:16:10;13.70;99.90
26408;DHT22;14583;43.604;1.364;2024-01-16T11:18:37;13.70;99.90
26408;DHT22;14583;43.604;1.364;2024-01-16T11:21:05;13.70;99.90
26408;DHT22;14583;43.604;1.364;2024-01-16T11:23:31;13.70;99.90
26408;DHT22;14583;43.604;1.364;2024-01-16T11:25:57;13.70;99.90
26408;DHT22;14583;43.604;1.364;2024-01-16T11:28:27;13.80;99.90
26408;DHT22;14583;43.604;1.364;2024-01-16T11:30:55;13.80;99.90
26408;DHT22;14583;43.604;1.364;2024-01-16T11:33:42;13.80;99.90
26408;DHT22;14583;43.604;1.364;2024-01-16T11:39:18;14.00;99.90
26408;DHT22;14583;43.604;1.364;2024-01-16T11:44:49;14.10;99.90
26408;DHT22;14583;43.604;1.364;2024-01-16T11:47:20;14.10;99.90
26408;DHT22;14583;43.604;1.364;2024-01-16T11:49:47;14.10;99.90
26408;DHT22;14583;43.604;1.364;2024-01-16T11:52:14;14.00;99.90
26408;DHT22;14583;43.604;1.364;2024-01-16T11:54:41;14.00;99.90
26408;DHT22;14583;43.604;1.364;2024-01-16T11:57:50;14.00;99.90
26408;DHT22;14583;43.604;1.364;2024-01-16T12:00:20;14.00;99.90
26408;DHT22;14583;43.604;1.364;2024-01-16T12:03:00;14.00;99.90
26408;DHT22;14583;43.604;1.364;2024-01-16T12:05:27;13.90;99.90
26408;DHT22;14583;43.604;1.364;2024-01-16T12:07:53;14.00;99.90
26408;DHT22;14583;43.604;1.364;2024-01-16T12:10:23;14.00;99.90
26408;DHT22;14583;43.604;1.364;2024-01-16T12:12:50;14.10;99.90
26408;DHT22;14583;43.604;1.364;2024-01-16T12:15:20;14.10;99.90
26408;DHT22;14583;43.604;1.364;2024-01-16T12:17:54;14.10;99.90
26408;DHT22;14583;43.604;1.364;2024-01-16T12:20:21;14.10;99.90
26408;DHT22;14583;43.604;1.364;2024-01-16T12:23:00;14.20;99.90
26408;DHT22;14583;43.604;1.364;2024-01-16T12:25:27;14.30;99.90
26408;DHT22;14583;43.604;1.364;2024-01-16T12:28:07;14.40;99.90
26408;DHT22;14583;43.604;1.364;2024-01-16T12:30:34;14.30;99.90
26408;DHT22;14583;43.604;1.364;2024-01-16T12:33:10;14.30;99.90
26408;DHT22;14583;43.604;1.364;2024-01-16T12:35:40;14.40;99.90
26408;DHT22;14583;43.604;1.364;2024-01-16T12:38:10;14.50;99.90
26408;DHT22;14583;43.604;1.364;2024-01-16T12:40:37;14.50;99.90
26408;DHT22;14583;43.604;1.364;2024-01-16T12:43:05;14.50;99.90
26408;DHT22;14583;43.604;1.364;2024-01-16T12:45:32;14.70;99.90
26408;DHT22;14583;43.604;1.364;2024-01-16T12:47:59;14.70;99.90
26408;DHT22;14583;43.604;1.364;2024-01-16T12:50:27;14.80;99.90
26408;DHT22;14583;43.604;1.364;2024-01-16T12:53:21;14.90;99.90
26408;DHT22;14583;43.604;1.364;2024-01-16T12:55:57;15.10;99.90
26408;DHT22;14583;43.604;1.364;2024-01-16T12:58:24;15.10;99.90
26408;DHT22;14583;43.604;1.364;2024-01-16T13:00:51;15.10;99.90
26408;DHT22;14583;43.604;1.364;2024-01-16T13:03:18;15.00;99.90
26408;DHT22;14583;43.604;1.364;2024-01-16T13:05:45;14.90;99.90
26408;DHT22;14583;43.604;1.364;2024-01-16T13:08:18;14.90;99.90
26408;DHT22;14583;43.604;1.364;2024-01-16T13:10:46;14.90;99.90
26408;DHT22;14583;43.604;1.364;2024-01-16T13:13:17;14.80;99.90
26408;DHT22;14583;43.604;1.364;2024-01-16T13:15:44;14.80;99.90
26408;DHT22;14583;43.604;1.364;2024-01-16T13:18:23;14.80;99.90
26408;DHT22;14583;43.604;1.364;2024-01-16T13:20:50;14.80;99.90
26408;DHT22;14583;43.604;1.364;2024-01-16T13:23:17;14.70;99.90
26408;DHT22;14583;43.604;1.364;2024-01-16T13:25:44;14.70;99.90
26408;DHT22;14583;43.604;1.364;2024-01-16T13:28:14;14.70;99.90
26408;DHT22;14583;43.604;1.364;2024-01-16T13:30:41;14.70;99.90
26408;DHT22;14583;43.604;1.364;2024-01-16T13:33:07;14.80;99.90
26408;DHT22;14583;43.604;1.364;2024-01-16T13:35:35;14.90;99.90
26408;DHT22;14583;43.604;1.364;2024-01-16T13:38:02;15.20;99.90
26408;DHT22;14583;43.604;1.364;2024-01-16T13:40:29;15.40;99.90
26408;DHT22;14583;43.604;1.364;2024-01-16T13:42:55;15.60;99.90
26408;DHT22;14583;43.604;1.364;2024-01-16T13:45:22;15.70;99.90
26408;DHT22;14583;43.604;1.364;2024-01-16T13:47:48;15.80;99.90
26408;DHT22;14583;43.604;1.364;2024-01-16T13:50:14;16.00;99.90
26408;DHT22;14583;43.604;1.364;2024-01-16T13:52:40;15.80;99.90
26408;DHT22;14583;43.604;1.364;2024-01-16T13:55:06;15.50;99.90
26408;DHT22;14583;43.604;1.364;2024-01-16T13:57:32;15.20;99.90
26408;DHT22;14583;43.604;1.364;2024-01-16T13:59:58;15.10;99.90
26408;DHT22;14583;43.604;1.364;2024-01-16T14:02:24;15.10;99.90
26408;DHT22;14583;43.604;1.364;2024-01-16T14:04:50;15.00;99.90
26408;DHT22;14583;43.604;1.364;2024-01-16T14:07:16;14.90;99.90
26408;DHT22;14583;43.604;1.364;2024-01-16T14:09:42;15.00;99.90
26408;DHT22;14583;43.604;1.364;2024-01-16T14:12:08;15.10;99.90
26408;DHT22;14583;43.604;1.364;2024-01-16T14:14:34;15.00;99.90
26408;DHT22;14583;43.604;1.364;2024-01-16T14:17:01;14.90;99.90
26408;DHT22;14583;43.604;1.364;2024-01-16T14:19:27;14.90;99.90
26408;DHT22;14583;43.604;1.364;2024-01-16T14:21:55;14.80;99.90
26408;DHT22;14583;43.604;1.364;2024-01-16T14:24:21;14.70;99.90
26408;DHT22;14583;43.604;1.364;2024-01-16T14:26:47;14.70;99.90
26408;DHT22;14583;43.604;1.364;2024-01-16T14:29:13;14.60;99.90
26408;DHT22;14583;43.604;1.364;2024-01-16T14:31:39;14.60;99.90
26408;DHT22;14583;43.604;1.364;2024-01-16T14:34:10;14.70;99.90
26408;DHT22;14583;43.604;1.364;2024-01-16T14:36:39;14.90;99.90
26408;DHT22;14583;43.604;1.364;2024-01-16T14:39:05;15.10;99.90
26408;DHT22;14583;43.604;1.364;2024-01-16T14:41:31;15.10;99.90
26408;DHT22;14583;43.604;1.364;2024-01-16T14:43:57;15.30;99.90
26408;DHT22;14583;43.604;1.364;2024-01-16T14:46:23;15.50;99.90
26408;DHT22;14583;43.604;1.364;2024-01-16T14:48:49;16.80;99.90
26408;DHT22;14583;43.604;1.364;2024-01-16T14:51:15;17.00;99.90
26408;DHT22;14583;43.604;1.364;2024-01-16T14:53:41;19.50;99.90
26408;DHT22;14583;43.604;1.364;2024-01-16T14:56:06;21.50;99.90
26408;DHT22;14583;43.604;1.364;2024-01-16T14:58:32;19.70;99.90
26408;DHT22;14583;43.604;1.364;2024-01-16T15:00:58;18.50;99.90
26408;DHT22;14583;43.604;1.364;2024-01-16T15:03:24;18.00;99.90
26408;DHT22;14583;43.604;1.364;2024-01-16T15:05:50;18.70;99.90
26408;DHT22;14583;43.604;1.364;2024-01-16T15:08:18;17.70;99.90
26408;DHT22;14583;43.604;1.364;2024-01-16T15:10:44;18.10;99.90
26408;DHT22;14583;43.604;1.364;2024-01-16T15:13:10;19.70;99.90
26408;DHT22;14583;43.604;1.364;2024-01-16T15:15:35;21.30;99.90
26408;DHT22;14583;43.604;1.364;2024-01-16T15:18:02;22.90;99.90
26408;DHT22;14583;43.604;1.364;2024-01-16T15:20:28;22.80;99.90
26408;DHT22;14583;43.604;1.364;2024-01-16T15:22:54;22.00;99.90
26408;DHT22;14583;43.604;1.364;2024-01-16T15:25:20;19.60;99.90
26408;DHT22;14583;43.604;1.364;2024-01-16T15:27:51;18.40;99.90
26408;DHT22;14583;43.604;1.364;2024-01-16T15:30:22;17.50;99.90
26408;DHT22;14583;43.604;1.364;2024-01-16T15:32:53;16.50;99.90
26408;DHT22;14583;43.604;1.364;2024-01-16T15:35:18;16.10;99.90